Time;durP1;ratioP1;P1;durP2;ratioP2;P2;SDS_P1;SDS_P2;PMS_P1;PMS_P2;Temp;Humidity;BMP_temperature;BMP_pressure;BME280_temperature;BME280_humidity;BME280_pressure;Samples;Min_cycle;Max_cycle;Signal;HPM_P1;HPM_P2
2023/06/06 00:01:43;;;;;;;10.63;6.22;;;11.70;99.90;;;;;;5007032;28;20030;-59
2023/06/06 00:04:09;;;;;;;15.57;6.57;;;11.70;99.90;;;;;;5021521;28;20091;-59
2023/06/06 00:06:35;;;;;;;7.93;5.03;;;11.70;99.90;;;;;;5030504;28;20048;-59
2023/06/06 00:09:05;;;;;;;11.27;5.93;;;11.70;99.90;;;;;;5004490;28;20104;-59
2023/06/06 00:11:32;;;;;;;16.85;6.03;;;11.60;99.90;;;;;;5008177;28;20049;-59
2023/06/06 00:13:58;;;;;;;16.38;6.70;;;11.70;99.90;;;;;;5025851;28;20040;-59
2023/06/06 00:16:27;;;;;;;9.68;4.97;;;11.70;99.90;;;;;;5028955;28;20084;-59
2023/06/06 00:18:55;;;;;;;13.52;6.38;;;11.60;99.90;;;;;;5006868;28;20044;-59
2023/06/06 00:21:22;;;;;;;12.73;5.85;;;11.70;99.90;;;;;;5006005;28;20049;-59
2023/06/06 00:23:49;;;;;;;9.93;5.53;;;11.60;99.90;;;;;;5025814;28;20072;-58
2023/06/06 00:26:15;;;;;;;10.23;4.85;;;11.60;99.90;;;;;;5032148;28;20153;-59
2023/06/06 00:28:41;;;;;;;6.97;4.22;;;11.60;99.90;;;;;;5016311;28;20069;-59
2023/06/06 00:31:07;;;;;;;8.00;4.90;;;11.70;99.90;;;;;;5029444;28;20030;-59
2023/06/06 00:33:32;;;;;;;6.88;3.90;;;11.70;99.90;;;;;;5026702;28;20044;-59
2023/06/06 00:35:58;;;;;;;10.98;4.45;;;11.60;99.90;;;;;;5029068;28;20037;-58
2023/06/06 00:38:24;;;;;;;15.25;5.50;;;11.70;99.90;;;;;;5031176;28;20030;-59
2023/06/06 00:40:49;;;;;;;13.90;5.50;;;11.60;99.90;;;;;;5026759;28;20041;-59
2023/06/06 00:43:15;;;;;;;9.18;4.78;;;11.60;99.90;;;;;;4994763;28;20053;-59
2023/06/06 00:45:41;;;;;;;8.70;4.40;;;11.60;99.90;;;;;;5036741;28;20044;-59
2023/06/06 00:48:07;;;;;;;8.25;4.65;;;11.70;99.90;;;;;;5027918;28;20041;-59
2023/06/06 00:50:35;;;;;;;11.65;5.28;;;11.70;99.90;;;;;;5031556;28;20048;-59
2023/06/06 00:53:03;;;;;;;12.73;6.07;;;11.70;99.90;;;;;;5008045;28;20049;-58
2023/06/06 00:55:31;;;;;;;13.65;5.70;;;11.60;99.90;;;;;;5023301;28;20520;-59
2023/06/06 00:57:59;;;;;;;11.02;5.10;;;11.60;99.90;;;;;;5021356;28;20052;-59
2023/06/06 01:00:27;;;;;;;12.73;5.47;;;11.60;99.90;;;;;;5023477;28;20388;-59
2023/06/06 01:02:53;;;;;;;11.52;5.53;;;11.50;99.90;;;;;;5022794;28;20073;-59
2023/06/06 01:05:20;;;;;;;9.90;4.60;;;11.50;99.90;;;;;;5025575;28;20045;-59
2023/06/06 01:07:47;;;;;;;11.52;5.35;;;11.50;99.90;;;;;;5024496;28;20126;-58
2023/06/06 01:10:14;;;;;;;11.85;5.70;;;11.50;99.90;;;;;;5026877;28;20095;-59
2023/06/06 01:12:52;;;;;;;9.43;5.10;;;11.50;99.90;;;;;;5029023;28;20042;-59
2023/06/06 01:15:25;;;;;;;13.55;4.93;;;11.50;99.90;;;;;;5025579;28;20048;-59
2023/06/06 01:17:52;;;;;;;11.50;5.43;;;11.60;99.90;;;;;;5030123;28;20044;-59
2023/06/06 01:31:38;;;;;;;12.15;5.15;;;11.40;99.90;;;;;;5032354;28;20071;-60
2023/06/06 01:34:11;;;;;;;8.73;5.88;;;11.40;99.90;;;;;;5030339;28;20053;-60
2023/06/06 01:36:46;;;;;;;8.57;5.20;;;11.40;99.90;;;;;;5033868;28;20523;-60
2023/06/06 01:39:15;;;;;;;11.98;5.78;;;11.40;99.90;;;;;;5024585;28;20048;-60
2023/06/06 01:41:44;;;;;;;10.45;5.00;;;11.50;99.90;;;;;;5026622;28;20462;-59
2023/06/06 01:44:11;;;;;;;14.02;5.70;;;11.40;99.90;;;;;;5020839;28;20068;-59
2023/06/06 01:46:37;;;;;;;10.77;6.63;;;11.50;99.90;;;;;;5006240;28;20054;-60
2023/06/06 01:49:04;;;;;;;15.20;6.18;;;11.50;99.90;;;;;;5026093;28;20119;-60
2023/06/06 01:51:30;;;;;;;13.63;5.88;;;11.50;99.90;;;;;;5010558;28;20108;-60
2023/06/06 01:53:57;;;;;;;9.50;5.70;;;11.50;99.90;;;;;;5023703;28;20081;-60
2023/06/06 01:56:25;;;;;;;12.10;6.93;;;11.50;99.90;;;;;;5011226;28;20112;-60
2023/06/06 01:58:52;;;;;;;11.63;5.93;;;11.60;99.90;;;;;;5031564;28;20041;-59
2023/06/06 02:01:17;;;;;;;9.93;5.63;;;11.50;99.90;;;;;;5027811;28;20075;-59
2023/06/06 02:03:43;;;;;;;12.20;6.30;;;11.60;99.90;;;;;;5026804;28;20061;-60
2023/06/06 02:06:09;;;;;;;12.60;6.60;;;11.60;99.90;;;;;;5029674;28;20042;-60
2023/06/06 02:08:35;;;;;;;11.10;6.10;;;11.60;99.90;;;;;;5026717;28;20041;-60
2023/06/06 02:11:00;;;;;;;13.75;6.95;;;11.60;99.90;;;;;;5025110;28;20041;-60
2023/06/06 02:13:27;;;;;;;9.52;5.50;;;11.70;99.90;;;;;;5030529;28;20041;-60
2023/06/06 02:15:53;;;;;;;10.43;6.53;;;11.70;99.90;;;;;;5027107;28;20041;-59
2023/06/06 02:18:19;;;;;;;10.20;6.47;;;11.70;99.90;;;;;;5027729;28;20056;-60
2023/06/06 02:20:45;;;;;;;11.00;6.55;;;11.70;99.90;;;;;;5024739;28;20137;-60
2023/06/06 02:23:10;;;;;;;20.55;7.10;;;11.70;99.90;;;;;;5023616;28;20045;-60
2023/06/06 02:25:37;;;;;;;12.80;7.32;;;11.70;99.90;;;;;;5024125;28;20037;-59
2023/06/06 02:28:04;;;;;;;10.82;5.82;;;11.70;99.90;;;;;;5028011;28;20045;-60
2023/06/06 02:30:30;;;;;;;9.65;6.28;;;11.70;99.90;;;;;;5025316;28;20037;-59
2023/06/06 02:32:56;;;;;;;10.48;6.57;;;11.70;99.90;;;;;;5026996;28;20503;-60
2023/06/06 02:35:22;;;;;;;12.25;5.60;;;11.70;99.90;;;;;;5009241;28;20080;-59
2023/06/06 02:37:48;;;;;;;11.25;5.32;;;11.70;99.90;;;;;;5007561;28;20048;-60
2023/06/06 02:40:14;;;;;;;12.70;5.70;;;11.70;99.90;;;;;;5027092;28;20041;-60
2023/06/06 02:42:40;;;;;;;17.15;6.38;;;11.70;99.90;;;;;;5023505;28;20087;-60
2023/06/06 02:45:10;;;;;;;17.88;7.78;;;11.70;99.90;;;;;;5016948;28;20037;-58
2023/06/06 02:47:36;;;;;;;10.63;6.57;;;11.70;99.90;;;;;;5024781;28;20034;-60
2023/06/06 02:50:06;;;;;;;11.40;6.82;;;11.70;99.90;;;;;;5026957;28;20075;-60
2023/06/06 02:52:32;;;;;;;11.80;6.75;;;11.70;99.90;;;;;;5024147;28;20068;-60
2023/06/06 02:54:59;;;;;;;15.75;6.78;;;11.60;99.90;;;;;;5029195;28;20071;-60
2023/06/06 02:57:25;;;;;;;18.10;6.75;;;11.60;99.90;;;;;;5027626;28;20156;-60
2023/06/06 02:59:51;;;;;;;11.93;6.85;;;11.60;99.90;;;;;;5024121;28;20040;-59
2023/06/06 03:02:17;;;;;;;13.73;6.97;;;11.60;99.90;;;;;;5025908;28;20045;-60
2023/06/06 03:04:43;;;;;;;10.93;6.78;;;11.60;99.90;;;;;;5026339;28;20037;-60
2023/06/06 03:07:16;;;;;;;13.27;6.57;;;11.60;99.90;;;;;;5027934;28;20045;-60
2023/06/06 03:09:43;;;;;;;19.05;7.43;;;11.60;99.90;;;;;;5021136;28;20044;-60
2023/06/06 03:12:08;;;;;;;10.35;5.82;;;11.50;99.90;;;;;;5008152;28;20408;-60
2023/06/06 03:14:34;;;;;;;12.00;6.15;;;11.50;99.90;;;;;;5031849;28;20034;-60
2023/06/06 03:17:00;;;;;;;10.88;6.55;;;11.60;99.90;;;;;;5026484;28;20034;-59
2023/06/06 03:19:26;;;;;;;10.32;6.93;;;11.50;99.90;;;;;;5028016;28;20079;-60
2023/06/06 03:21:51;;;;;;;14.10;7.47;;;11.50;99.90;;;;;;5023070;28;20037;-60
2023/06/06 03:24:18;;;;;;;12.10;6.78;;;11.60;99.90;;;;;;5026934;28;20045;-59
2023/06/06 03:26:46;;;;;;;10.30;6.30;;;11.60;99.90;;;;;;5025682;28;20041;-60
2023/06/06 03:29:12;;;;;;;11.80;6.57;;;11.50;99.90;;;;;;5025986;28;20061;-59
2023/06/06 03:31:38;;;;;;;13.95;6.32;;;11.60;99.90;;;;;;4992560;28;20048;-60
2023/06/06 03:34:04;;;;;;;11.30;6.63;;;11.50;99.90;;;;;;5022295;28;20041;-60
2023/06/06 03:36:33;;;;;;;13.45;6.07;;;11.50;99.90;;;;;;5027051;28;20100;-59
2023/06/06 03:39:00;;;;;;;12.27;6.25;;;11.60;99.90;;;;;;5025222;28;20034;-60
2023/06/06 03:41:26;;;;;;;10.32;6.00;;;11.60;99.90;;;;;;5027412;28;20037;-60
2023/06/06 03:43:52;;;;;;;11.52;6.07;;;11.60;99.90;;;;;;5008696;28;20124;-60
2023/06/06 03:46:17;;;;;;;9.32;5.22;;;11.60;99.90;;;;;;5024301;28;20045;-60
2023/06/06 03:48:43;;;;;;;13.75;6.40;;;11.60;99.90;;;;;;5008554;28;20076;-60
2023/06/06 03:51:09;;;;;;;12.40;6.05;;;11.60;99.90;;;;;;5022100;28;20385;-59
2023/06/06 03:53:34;;;;;;;12.20;7.00;;;11.60;99.90;;;;;;5020822;28;20070;-59
2023/06/06 03:56:01;;;;;;;13.45;6.70;;;11.60;99.90;;;;;;5017509;28;20030;-60
2023/06/06 03:58:27;;;;;;;15.55;7.38;;;11.60;99.90;;;;;;5027612;28;20048;-60
2023/06/06 04:00:53;;;;;;;11.32;6.03;;;11.60;99.90;;;;;;5028500;28;20688;-60
2023/06/06 04:03:18;;;;;;;10.65;6.00;;;11.50;99.90;;;;;;5030423;28;20099;-60
2023/06/06 04:05:47;;;;;;;11.48;7.00;;;11.60;99.90;;;;;;5029376;28;20041;-60
2023/06/06 04:08:12;;;;;;;13.75;6.57;;;11.60;99.90;;;;;;5033982;28;20148;-60
2023/06/06 04:10:38;;;;;;;13.40;6.70;;;11.60;99.90;;;;;;5031781;28;20116;-60
2023/06/06 04:13:04;;;;;;;15.38;6.78;;;11.60;99.90;;;;;;5030231;28;20076;-60
2023/06/06 04:15:30;;;;;;;12.73;6.03;;;11.60;99.90;;;;;;5028745;28;20074;-59
2023/06/06 04:17:56;;;;;;;11.43;6.22;;;11.60;99.90;;;;;;5031306;28;20120;-60
2023/06/06 04:20:22;;;;;;;12.70;6.53;;;11.70;99.90;;;;;;5022170;28;20128;-60
2023/06/06 04:22:48;;;;;;;12.98;6.93;;;11.70;99.90;;;;;;5033819;28;20583;-59
2023/06/06 04:25:16;;;;;;;14.48;6.30;;;11.70;99.90;;;;;;5025746;28;20049;-60
2023/06/06 04:27:44;;;;;;;14.10;7.13;;;11.70;99.90;;;;;;5012319;28;20134;-60
2023/06/06 04:30:14;;;;;;;13.38;7.13;;;11.70;99.90;;;;;;5027112;28;20037;-60
2023/06/06 04:32:40;;;;;;;13.95;7.78;;;11.70;99.90;;;;;;5010058;28;20045;-60
2023/06/06 04:35:09;;;;;;;16.83;6.22;;;11.80;99.90;;;;;;5028987;28;20041;-60
2023/06/06 04:37:37;;;;;;;15.63;7.15;;;11.80;99.90;;;;;;5015077;28;20133;-60
2023/06/06 04:40:07;;;;;;;12.15;5.95;;;11.80;99.90;;;;;;5030000;28;20049;-60
2023/06/06 04:42:33;;;;;;;13.55;6.75;;;11.80;99.90;;;;;;5024397;28;20091;-60
2023/06/06 04:45:03;;;;;;;10.95;6.65;;;11.80;99.90;;;;;;5027933;28;20041;-60
2023/06/06 04:47:35;;;;;;;13.52;6.45;;;11.80;99.90;;;;;;5029701;28;20046;-59
2023/06/06 04:50:00;;;;;;;15.40;7.38;;;11.90;99.90;;;;;;5029229;28;20129;-60
2023/06/06 04:52:28;;;;;;;16.60;7.45;;;11.90;99.90;;;;;;5026597;28;20203;-60
2023/06/06 04:54:55;;;;;;;14.70;6.45;;;11.90;99.90;;;;;;5016098;28;20037;-62
2023/06/06 04:57:21;;;;;;;12.73;7.35;;;11.90;99.90;;;;;;5030208;28;20551;-59
2023/06/06 04:59:51;;;;;;;13.07;6.85;;;11.90;99.90;;;;;;5027613;28;20045;-60
2023/06/06 05:02:20;;;;;;;10.32;6.20;;;12.00;99.90;;;;;;5008680;28;20069;-59
2023/06/06 05:04:52;;;;;;;13.68;6.00;;;12.10;99.90;;;;;;5027879;28;20041;-59
2023/06/06 05:07:18;;;;;;;12.02;5.97;;;12.20;99.90;;;;;;5023771;28;20060;-60
2023/06/06 05:09:44;;;;;;;15.15;6.68;;;12.20;99.90;;;;;;5028566;28;20543;-59
2023/06/06 05:12:10;;;;;;;15.30;6.85;;;12.30;99.90;;;;;;5026847;28;20041;-60
2023/06/06 05:14:35;;;;;;;15.77;6.07;;;12.30;99.90;;;;;;5009769;28;20107;-59
2023/06/06 05:17:01;;;;;;;11.15;6.25;;;12.30;99.90;;;;;;5027468;28;20041;-59
2023/06/06 05:19:27;;;;;;;11.82;5.30;;;12.40;99.90;;;;;;5013394;28;20411;-60
2023/06/06 05:21:53;;;;;;;9.40;5.53;;;12.40;99.90;;;;;;5013471;28;20460;-60
2023/06/06 05:24:18;;;;;;;15.52;6.18;;;12.50;99.90;;;;;;5031162;28;20067;-59
2023/06/06 05:26:44;;;;;;;14.13;6.60;;;12.50;99.90;;;;;;5028969;28;20091;-60
2023/06/06 05:31:46;;;;;;;11.88;5.80;;;12.70;99.90;;;;;;5045140;28;20053;-61
2023/06/06 05:34:12;;;;;;;12.82;5.72;;;12.70;99.90;;;;;;5032237;28;20503;-61
2023/06/06 05:36:37;;;;;;;16.15;6.38;;;12.70;99.90;;;;;;5050359;28;20042;-61
2023/06/06 05:39:03;;;;;;;10.05;5.45;;;12.80;99.90;;;;;;5049248;28;20037;-61
2023/06/06 05:41:29;;;;;;;19.17;6.50;;;12.80;99.90;;;;;;5053316;28;20125;-61
2023/06/06 05:43:55;;;;;;;10.18;5.18;;;12.90;99.90;;;;;;5057819;28;20037;-61
2023/06/06 05:46:21;;;;;;;12.43;6.18;;;13.00;99.90;;;;;;5053318;28;20055;-61
2023/06/06 05:48:46;;;;;;;9.88;5.57;;;13.10;99.90;;;;;;5049013;28;20159;-62
2023/06/06 05:51:12;;;;;;;13.40;5.88;;;13.20;99.90;;;;;;5049367;28;20132;-61
2023/06/06 05:53:44;;;;;;;13.20;5.50;;;13.20;99.90;;;;;;5049373;28;20168;-61
2023/06/06 05:56:11;;;;;;;8.57;6.03;;;13.30;99.90;;;;;;5013078;28;20033;-62
2023/06/06 05:58:37;;;;;;;11.65;6.10;;;13.30;99.90;;;;;;5067171;28;20041;-62
2023/06/06 06:01:02;;;;;;;13.07;6.10;;;13.40;99.90;;;;;;5049791;28;20044;-61
2023/06/06 06:03:28;;;;;;;12.90;5.18;;;13.40;99.90;;;;;;5029856;28;20048;-62
2023/06/06 06:06:02;;;;;;;14.38;5.18;;;13.40;99.90;;;;;;5016427;28;20099;-61
2023/06/06 06:08:28;;;;;;;;;;;13.50;99.90;;;;;;5050013;28;21246;-61
2023/06/06 06:10:54;;;;;;;9.40;4.72;;;13.50;99.90;;;;;;5048615;28;19921;-61
2023/06/06 06:13:20;;;;;;;9.68;4.90;;;13.50;99.90;;;;;;5049387;28;20495;-60
2023/06/06 06:15:46;;;;;;;10.02;4.55;;;13.50;99.90;;;;;;5048298;28;20624;-61
2023/06/06 06:18:13;;;;;;;11.73;5.20;;;13.70;99.90;;;;;;5048527;28;20052;-61
2023/06/06 06:20:38;;;;;;;15.60;6.03;;;13.70;99.90;;;;;;5030857;28;20423;-60
2023/06/06 06:23:04;;;;;;;9.55;4.85;;;13.70;99.90;;;;;;5046672;28;20071;-62
2023/06/06 06:25:30;;;;;;;11.50;4.65;;;13.80;99.90;;;;;;5052950;28;20040;-61
2023/06/06 06:27:57;;;;;;;11.20;4.90;;;13.90;99.90;;;;;;5049959;28;20044;-61
2023/06/06 06:30:22;;;;;;;9.85;4.47;;;13.90;99.90;;;;;;5049120;28;20045;-61
2023/06/06 06:32:48;;;;;;;9.07;4.18;;;14.00;99.90;;;;;;5038218;28;20092;-61
2023/06/06 06:35:14;;;;;;;11.95;5.55;;;14.10;99.90;;;;;;5031208;28;20037;-61
2023/06/06 06:37:40;;;;;;;11.32;4.22;;;14.10;99.90;;;;;;5051987;28;20029;-61
2023/06/06 06:40:09;;;;;;;12.43;4.32;;;14.10;99.90;;;;;;5047428;28;20044;-61
2023/06/06 06:42:40;;;;;;;12.80;5.03;;;14.30;99.90;;;;;;5048013;28;20052;-62
2023/06/06 06:45:12;;;;;;;13.38;4.70;;;14.40;99.90;;;;;;5044957;28;20061;-60
2023/06/06 06:47:38;;;;;;;10.63;4.75;;;14.40;99.90;;;;;;5061190;28;20712;-61
2023/06/06 06:50:05;;;;;;;12.13;5.25;;;14.40;99.90;;;;;;5046828;28;20037;-61
2023/06/06 06:52:35;;;;;;;7.57;3.70;;;14.50;99.90;;;;;;5025922;28;20044;-61
2023/06/06 06:55:02;;;;;;;8.57;4.00;;;14.60;99.90;;;;;;5032196;28;20049;-61
2023/06/06 06:57:29;;;;;;;10.13;4.35;;;14.60;99.90;;;;;;5051233;28;20659;-61
2023/06/06 07:00:11;;;;;;;9.27;4.53;;;14.70;99.90;;;;;;5049087;28;20403;-61
2023/06/06 07:02:39;;;;;;;7.25;4.15;;;14.80;99.90;;;;;;5049256;28;20479;-61
2023/06/06 07:05:06;;;;;;;14.80;4.15;;;14.90;99.90;;;;;;5052823;28;20464;-61
2023/06/06 07:07:31;;;;;;;6.72;4.05;;;14.90;99.90;;;;;;5045334;28;20048;-60
2023/06/06 07:09:57;;;;;;;8.48;4.18;;;14.90;99.90;;;;;;5054547;28;20040;-58
2023/06/06 07:12:23;;;;;;;8.73;4.13;;;15.00;99.90;;;;;;5053435;28;20375;-60
2023/06/06 07:14:49;;;;;;;9.63;4.20;;;15.10;99.90;;;;;;5047863;28;20068;-62
2023/06/06 07:17:17;;;;;;;7.88;3.80;;;15.20;99.90;;;;;;5048555;28;20041;-60
2023/06/06 07:19:43;;;;;;;10.38;4.53;;;15.30;99.90;;;;;;5047616;28;20116;-60
2023/06/06 07:22:10;;;;;;;11.25;4.25;;;15.40;99.90;;;;;;5052725;28;20163;-60
2023/06/06 07:24:35;;;;;;;14.73;4.38;;;15.50;99.90;;;;;;5029871;28;20094;-60
2023/06/06 07:27:02;;;;;;;13.70;5.07;;;15.60;99.90;;;;;;5048042;28;20446;-59
2023/06/06 07:29:30;;;;;;;8.35;3.63;;;15.60;99.90;;;;;;5028445;28;20123;-60
2023/06/06 07:31:55;;;;;;;9.25;3.90;;;15.70;99.90;;;;;;5048080;28;20044;-62
2023/06/06 07:34:22;;;;;;;9.75;3.85;;;15.70;99.90;;;;;;5050433;28;20064;-61
2023/06/06 07:36:48;;;;;;;9.52;3.92;;;15.80;99.90;;;;;;5052230;28;20571;-59
2023/06/06 07:39:14;;;;;;;7.15;4.20;;;15.90;99.90;;;;;;5035893;28;20040;-59
2023/06/06 07:41:40;;;;;;;7.65;4.20;;;15.90;99.90;;;;;;5048857;28;20674;-59
2023/06/06 07:44:06;;;;;;;9.02;3.88;;;15.90;99.90;;;;;;5030677;28;20075;-61
2023/06/06 07:46:32;;;;;;;7.03;4.00;;;16.00;99.90;;;;;;5047642;28;20496;-61
2023/06/06 07:49:00;;;;;;;10.40;4.50;;;16.00;99.90;;;;;;5014995;28;20494;-62
2023/06/06 07:51:26;;;;;;;8.93;3.97;;;16.10;99.90;;;;;;5047209;28;20119;-60
2023/06/06 07:53:52;;;;;;;8.45;3.47;;;16.00;99.90;;;;;;5048791;28;20159;-59
2023/06/06 07:56:20;;;;;;;10.23;4.15;;;16.10;99.90;;;;;;5037137;28;20041;-61
2023/06/06 07:58:51;;;;;;;16.02;4.18;;;16.10;99.90;;;;;;5049151;28;20037;-62
2023/06/06 08:01:20;;;;;;;10.85;4.20;;;16.10;99.90;;;;;;5052252;28;20627;-61
2023/06/06 08:03:50;;;;;;;7.10;3.65;;;16.20;99.90;;;;;;5037118;28;20045;-61
2023/06/06 08:06:20;;;;;;;6.88;4.28;;;16.30;99.90;;;;;;5045970;28;20040;-60
2023/06/06 08:08:48;;;;;;;10.18;4.55;;;16.50;99.90;;;;;;5046855;28;20041;-61
2023/06/06 08:11:14;;;;;;;7.45;3.45;;;16.50;99.90;;;;;;5046029;28;20118;-61
2023/06/06 08:13:40;;;;;;;10.10;4.72;;;16.60;99.90;;;;;;5047021;28;20045;-61
2023/06/06 08:16:06;;;;;;;6.68;3.75;;;16.60;99.90;;;;;;5058642;28;20492;-61
2023/06/06 08:18:31;;;;;;;9.93;4.07;;;16.70;99.90;;;;;;5031056;28;20052;-60
2023/06/06 08:20:57;;;;;;;9.07;4.53;;;16.80;99.90;;;;;;5053743;28;20048;-61
2023/06/06 08:23:23;;;;;;;6.18;4.00;;;16.90;99.90;;;;;;5014052;28;20071;-60
2023/06/06 08:25:55;;;;;;;8.52;4.15;;;17.00;99.90;;;;;;5047177;28;20044;-60
2023/06/06 08:28:30;;;;;;;11.75;5.03;;;17.00;99.90;;;;;;5050209;28;20049;-61
2023/06/06 08:30:56;;;;;;;8.65;4.93;;;17.00;99.90;;;;;;5047040;28;20049;-61
2023/06/06 08:33:21;;;;;;;8.52;4.88;;;16.90;99.90;;;;;;5038872;28;20068;-59
2023/06/06 08:35:47;;;;;;;9.57;4.40;;;16.90;99.90;;;;;;5048531;28;20047;-61
2023/06/06 08:38:15;;;;;;;9.23;5.32;;;16.90;99.90;;;;;;5057875;28;20120;-61
2023/06/06 08:40:41;;;;;;;8.82;4.97;;;17.00;99.90;;;;;;5047497;28;20133;-61
2023/06/06 08:43:09;;;;;;;9.05;5.32;;;17.10;99.90;;;;;;5046787;28;20048;-61
2023/06/06 08:45:36;;;;;;;9.63;4.65;;;17.20;99.90;;;;;;5036507;28;20120;-61
2023/06/06 08:48:04;;;;;;;7.97;4.40;;;17.40;99.90;;;;;;5044264;28;20085;-60
2023/06/06 08:50:30;;;;;;;9.57;4.72;;;17.50;99.90;;;;;;5055154;28;20045;-60
2023/06/06 08:52:56;;;;;;;36.90;6.80;;;17.50;99.90;;;;;;5030478;28;20116;-61
2023/06/06 08:55:22;;;;;;;9.38;4.78;;;17.60;99.90;;;;;;5055397;28;20121;-61
2023/06/06 08:57:50;;;;;;;8.30;4.78;;;17.50;99.90;;;;;;5043260;28;20044;-59
2023/06/06 09:00:21;;;;;;;8.10;4.38;;;17.60;99.90;;;;;;5050773;28;20124;-59
2023/06/06 09:02:54;;;;;;;8.02;4.18;;;17.60;99.90;;;;;;5050496;28;20044;-60
2023/06/06 09:05:20;;;;;;;7.55;4.78;;;17.70;99.90;;;;;;5056159;28;20087;-61
2023/06/06 09:07:52;;;;;;;9.30;4.88;;;17.80;99.90;;;;;;5044136;28;20106;-60
2023/06/06 09:10:18;;;;;;;9.57;5.22;;;17.70;99.90;;;;;;5050716;28;20080;-58
2023/06/06 09:12:46;;;;;;;8.00;4.40;;;17.80;99.90;;;;;;5061224;28;20053;-59
2023/06/06 09:15:12;;;;;;;9.68;4.93;;;17.90;99.90;;;;;;5062004;28;20040;-61
2023/06/06 09:17:43;;;;;;;12.52;5.72;;;18.00;99.90;;;;;;5065756;28;20113;-61
2023/06/06 09:20:12;;;;;;;10.60;4.90;;;18.20;99.90;;;;;;5045812;28;20036;-59
2023/06/06 09:22:43;;;;;;;10.20;4.72;;;18.10;99.90;;;;;;5017745;28;20042;-59
2023/06/06 09:25:19;;;;;;;12.10;5.55;;;18.20;99.90;;;;;;5065254;28;20644;-60
2023/06/06 09:27:46;;;;;;;8.85;5.53;;;18.10;99.90;;;;;;5059820;28;20052;-62
2023/06/06 09:30:21;;;;;;;10.13;6.13;;;18.10;99.90;;;;;;5055593;28;20055;-61
2023/06/06 09:33:05;;;;;;;10.23;5.32;;;17.90;99.90;;;;;;5031471;28;20098;-60
2023/06/06 09:35:33;;;;;;;12.07;5.85;;;18.10;99.90;;;;;;5048584;28;20037;-61
2023/06/06 09:38:15;;;;;;;12.77;5.88;;;18.30;99.90;;;;;;5032242;28;20063;-62
2023/06/06 09:40:50;;;;;;;9.75;5.22;;;18.40;99.90;;;;;;5032925;28;20194;-58
2023/06/06 09:43:22;;;;;;;7.80;5.45;;;18.20;99.90;;;;;;5051536;28;20060;-59
2023/06/06 09:45:50;;;;;;;7.95;5.50;;;18.20;99.90;;;;;;5051195;28;20175;-61
2023/06/06 09:48:29;;;;;;;9.82;5.13;;;18.20;99.90;;;;;;5066768;28;20045;-60
2023/06/06 09:50:56;;;;;;;13.40;5.40;;;18.20;99.90;;;;;;5046921;28;20032;-59
2023/06/06 09:53:29;;;;;;;9.63;6.20;;;18.40;99.90;;;;;;5049699;28;20043;-60
2023/06/06 09:55:58;;;;;;;10.27;5.80;;;18.60;99.90;;;;;;5033226;28;20120;-63
2023/06/06 09:58:28;;;;;;;9.02;5.45;;;18.70;99.50;;;;;;5032903;28;20132;-60
2023/06/06 10:00:57;;;;;;;11.82;5.85;;;18.70;99.90;;;;;;5044834;28;20116;-59
2023/06/06 10:03:23;;;;;;;10.43;5.25;;;18.80;99.90;;;;;;5057542;28;20072;-59
2023/06/06 10:05:50;;;;;;;11.57;5.13;;;18.90;99.60;;;;;;5049298;28;20584;-59
2023/06/06 10:08:21;;;;;;;10.38;5.22;;;19.10;99.80;;;;;;5027100;28;20059;-62
2023/06/06 10:10:49;;;;;;;9.18;5.13;;;19.00;99.60;;;;;;5051226;28;20072;-58
2023/06/06 10:13:19;;;;;;;8.15;5.55;;;19.00;99.70;;;;;;5049624;28;20049;-60
2023/06/06 10:15:45;;;;;;;12.43;5.53;;;18.70;98.90;;;;;;5050544;28;20041;-59
2023/06/06 10:18:12;;;;;;;9.77;5.57;;;18.80;99.40;;;;;;5056096;28;20573;-60
2023/06/06 10:20:39;;;;;;;10.90;5.13;;;18.90;99.40;;;;;;5048609;28;20048;-62
2023/06/06 10:23:06;;;;;;;10.20;5.45;;;18.90;99.80;;;;;;5032882;28;20040;-62
2023/06/06 10:25:33;;;;;;;10.50;5.70;;;19.00;99.80;;;;;;5049565;28;20051;-58
2023/06/06 10:28:15;;;;;;;11.13;5.43;;;19.20;99.50;;;;;;5049380;28;20155;-60
2023/06/06 10:30:43;;;;;;;13.30;6.07;;;19.40;99.60;;;;;;5048971;28;20110;-61
2023/06/06 10:33:44;;;;;;;9.70;5.53;;;19.40;99.20;;;;;;5053679;28;20049;-61
2023/06/06 10:36:17;;;;;;;14.23;7.03;;;19.10;98.90;;;;;;5047885;28;20048;-59
2023/06/06 10:39:20;;;;;;;12.07;7.18;;;19.30;99.10;;;;;;5051218;28;20037;-62
2023/06/06 10:42:06;;;;;;;13.70;6.80;;;19.40;98.80;;;;;;5036578;28;20037;-59
2023/06/06 10:44:43;;;;;;;10.73;6.65;;;19.50;98.30;;;;;;5052037;28;20045;-60
2023/06/06 10:47:21;;;;;;;10.23;6.45;;;19.40;98.20;;;;;;5050144;28;20069;-59
2023/06/06 10:50:10;;;;;;;10.90;5.88;;;19.40;98.90;;;;;;5048729;28;20122;-60
2023/06/06 10:53:05;;;;;;;10.10;6.20;;;19.50;98.70;;;;;;5047280;28;20044;-59
2023/06/06 10:55:30;;;;;;;10.98;6.40;;;19.50;98.40;;;;;;5047063;28;20075;-61
2023/06/06 10:58:06;;;;;;;13.07;6.07;;;19.40;98.50;;;;;;5048602;28;20391;-62
2023/06/06 11:00:34;;;;;;;12.35;6.25;;;19.50;98.80;;;;;;5042391;28;20106;-59
2023/06/06 11:03:07;;;;;;;12.35;6.75;;;19.70;98.70;;;;;;5053088;28;20507;-59
2023/06/06 11:05:53;;;;;;;10.13;6.70;;;19.90;98.90;;;;;;5065330;28;20442;-61
2023/06/06 11:08:30;;;;;;;11.63;6.13;;;20.00;97.60;;;;;;5056484;28;20041;-58
2023/06/06 11:11:19;;;;;;;13.15;6.22;;;20.00;98.40;;;;;;5046789;28;20037;-58
2023/06/06 11:13:51;;;;;;;12.00;6.88;;;20.00;98.30;;;;;;5046495;28;20048;-61
2023/06/06 11:16:29;;;;;;;10.45;6.50;;;19.90;98.00;;;;;;5048503;28;20488;-61
2023/06/06 11:19:08;;;;;;;11.45;6.20;;;20.00;97.80;;;;;;5047223;28;20483;-61
2023/06/06 11:21:36;;;;;;;14.23;6.90;;;20.00;98.10;;;;;;5047931;28;20052;-61
2023/06/06 11:24:03;;;;;;;16.48;8.30;;;20.10;98.00;;;;;;5047515;28;20045;-59
2023/06/06 11:26:29;;;;;;;14.65;7.47;;;20.10;97.60;;;;;;5048349;28;20441;-59
2023/06/06 11:28:56;;;;;;;12.63;5.95;;;20.10;97.40;;;;;;5067622;28;20091;-59
2023/06/06 11:31:26;;;;;;;12.95;7.03;;;20.00;97.40;;;;;;5060134;22;20348;-61
2023/06/06 11:33:52;;;;;;;12.30;7.55;;;20.00;97.60;;;;;;5049721;28;20059;-61
2023/06/06 11:36:19;;;;;;;14.73;7.13;;;20.00;97.40;;;;;;5041497;28;20609;-61
2023/06/06 11:38:45;;;;;;;11.25;7.22;;;20.00;97.40;;;;;;5045724;28;20044;-61
2023/06/06 11:41:11;;;;;;;10.82;5.80;;;20.10;97.60;;;;;;5046942;28;20036;-61
2023/06/06 11:43:47;;;;;;;8.70;5.43;;;20.20;97.40;;;;;;5044591;28;20048;-61
2023/06/06 11:46:13;;;;;;;11.48;6.15;;;20.20;97.30;;;;;;5049036;28;20072;-61
2023/06/06 11:48:39;;;;;;;11.20;6.40;;;20.30;97.50;;;;;;5049294;28;20134;-61
2023/06/06 11:51:14;;;;;;;10.93;6.43;;;20.40;97.20;;;;;;5027024;28;20044;-61
2023/06/06 11:53:41;;;;;;;13.10;7.50;;;20.30;97.10;;;;;;5043881;28;20045;-61
2023/06/06 11:56:14;;;;;;;13.57;8.35;;;20.20;97.00;;;;;;5052294;28;20471;-61
2023/06/06 11:58:41;;;;;;;;;;;20.30;97.00;;;;;;5046984;28;20049;-61
2023/06/06 12:01:09;;;;;;;11.77;6.38;;;20.30;96.10;;;;;;5045428;28;19917;-61
2023/06/06 12:03:37;;;;;;;12.45;5.90;;;20.50;97.10;;;;;;5044852;28;20400;-61
2023/06/06 12:06:04;;;;;;;8.55;5.93;;;20.30;96.00;;;;;;5045291;28;20123;-61
2023/06/06 12:08:35;;;;;;;12.48;6.82;;;20.30;96.80;;;;;;5045691;28;20041;-61
2023/06/06 12:11:24;;;;;;;11.73;6.05;;;20.50;96.80;;;;;;5039072;28;20053;-61
2023/06/06 12:13:50;;;;;;;9.63;5.68;;;20.40;96.40;;;;;;5052913;28;20392;-61
2023/06/06 12:16:35;;;;;;;10.90;5.40;;;20.50;96.90;;;;;;5048395;28;20048;-61
2023/06/06 12:19:00;;;;;;;9.65;5.43;;;20.40;95.50;;;;;;5047132;28;20044;-61
2023/06/06 12:21:26;;;;;;;11.27;5.90;;;20.50;96.40;;;;;;5047424;28;20060;-61
2023/06/06 12:23:52;;;;;;;11.20;5.65;;;20.50;96.40;;;;;;5046035;28;20045;-61
2023/06/06 12:26:18;;;;;;;10.75;6.15;;;20.60;96.30;;;;;;5043892;28;20048;-61
2023/06/06 12:28:58;;;;;;;15.20;5.93;;;20.30;96.00;;;;;;5051925;28;20051;-61
2023/06/06 12:31:25;;;;;;;17.23;6.20;;;20.30;96.40;;;;;;5053439;28;20425;-61
2023/06/06 12:33:53;;;;;;;13.07;5.07;;;20.50;96.80;;;;;;5058301;28;20102;-61
2023/06/06 12:36:21;;;;;;;13.80;4.82;;;20.70;96.40;;;;;;5043180;28;20052;-61
2023/06/06 12:38:58;;;;;;;11.27;5.32;;;20.70;96.50;;;;;;5048595;28;20045;-61
2023/06/06 12:41:39;;;;;;;9.77;5.47;;;20.60;96.70;;;;;;5045838;28;20047;-61
2023/06/06 12:44:16;;;;;;;10.00;5.22;;;20.80;96.40;;;;;;5044379;28;20124;-61
2023/06/06 12:46:45;;;;;;;11.32;4.65;;;20.80;96.00;;;;;;5045964;28;20037;-61
2023/06/06 12:49:11;;;;;;;8.82;4.93;;;20.80;96.00;;;;;;5049732;28;20045;-61
2023/06/06 12:51:40;;;;;;;16.00;5.20;;;20.90;95.90;;;;;;5049289;28;20033;-61
2023/06/06 12:54:06;;;;;;;12.77;5.10;;;21.10;95.70;;;;;;5054701;28;20045;-61
2023/06/06 12:56:32;;;;;;;12.45;5.45;;;20.90;94.80;;;;;;5053242;28;20051;-61
2023/06/06 12:59:00;;;;;;;11.23;4.82;;;20.80;95.50;;;;;;5050414;28;20044;-61
2023/06/06 13:01:28;;;;;;;10.43;4.75;;;20.70;95.20;;;;;;5043949;28;20047;-61